createdAt,value
2018-05-16T00:01:30.624Z,8.30
2018-05-16T00:03:58.079Z,8.50
2018-05-16T00:06:26.327Z,8.63
2018-05-16T00:08:53.811Z,8.50
2018-05-16T00:11:21.345Z,7.80
2018-05-16T00:13:49.572Z,8.10
2018-05-16T00:16:17.792Z,8.77
2018-05-16T00:18:45.281Z,8.53
2018-05-16T00:24:04.208Z,7.77
2018-05-16T00:26:31.668Z,8.27
2018-05-16T00:28:59.967Z,8.67
2018-05-16T00:31:28.206Z,8.40
2018-05-16T00:33:55.660Z,8.70
2018-05-16T00:36:23.189Z,8.33
2018-05-16T00:38:50.647Z,8.10
2018-05-16T00:41:18.123Z,8.57
2018-05-16T00:43:46.341Z,8.60
2018-05-16T00:46:13.804Z,8.73
2018-05-16T00:48:42.028Z,9.00
2018-05-16T00:51:23.467Z,8.87
2018-05-16T00:53:50.940Z,9.10
2018-05-16T00:56:18.417Z,9.00
2018-05-16T00:58:45.880Z,9.27
2018-05-16T01:01:14.122Z,8.63
2018-05-16T01:03:41.580Z,8.33
2018-05-16T01:06:09.049Z,9.03
2018-05-16T01:08:36.648Z,9.40
2018-05-16T01:11:04.153Z,8.90
2018-05-16T01:13:31.628Z,7.77
2018-05-16T01:15:59.088Z,8.33
2018-05-16T01:18:26.648Z,8.70
2018-05-16T01:20:54.873Z,8.20
2018-05-16T01:23:22.376Z,8.50
2018-05-16T01:25:49.838Z,9.23
2018-05-16T01:28:17.346Z,9.83
2018-05-16T01:30:44.805Z,10.00
2018-05-16T01:33:12.280Z,9.33
2018-05-16T01:35:40.488Z,8.90
2018-05-16T01:38:08.742Z,9.57
2018-05-16T01:40:36.233Z,9.60
2018-05-16T01:43:03.803Z,10.57
2018-05-16T01:45:31.276Z,10.17
2018-05-16T01:47:58.778Z,9.57
2018-05-16T01:50:26.250Z,9.40
2018-05-16T01:52:53.738Z,9.77
2018-05-16T01:55:21.546Z,9.17
2018-05-16T01:57:49.017Z,9.67
2018-05-16T02:00:16.499Z,9.43
2018-05-16T02:02:44.044Z,10.10
2018-05-16T02:05:12.297Z,9.83
2018-05-16T02:07:39.774Z,9.17
2018-05-16T02:10:07.274Z,9.97
2018-05-16T02:12:34.743Z,10.20
2018-05-16T02:15:02.204Z,10.00
2018-05-16T02:17:29.682Z,9.23
2018-05-16T02:19:57.143Z,9.07
2018-05-16T02:22:24.696Z,9.10
2018-05-16T02:24:52.189Z,8.93
2018-05-16T02:27:19.654Z,9.10
2018-05-16T02:29:47.118Z,9.37
2018-05-16T02:32:15.370Z,9.87
2018-05-16T02:34:42.898Z,9.50
2018-05-16T02:37:10.365Z,9.83
2018-05-16T02:39:37.936Z,9.50
2018-05-16T02:42:05.415Z,9.00
2018-05-16T02:44:32.892Z,10.07
2018-05-16T02:47:00.385Z,9.13
2018-05-16T02:49:27.864Z,9.13
2018-05-16T02:51:55.340Z,10.03
2018-05-16T02:54:22.838Z,10.00
2018-05-16T02:56:50.309Z,9.53
2018-05-16T02:59:17.769Z,10.90
2018-05-16T03:01:45.236Z,11.13
2018-05-16T03:04:13.495Z,10.47
2018-05-16T03:06:40.972Z,11.50
2018-05-16T03:09:08.453Z,9.87
2018-05-16T03:11:35.933Z,9.57
2018-05-16T03:14:03.401Z,11.20
2018-05-16T03:16:30.869Z,10.60
2018-05-16T03:18:58.372Z,9.90
2018-05-16T03:21:25.828Z,9.43
2018-05-16T03:23:54.053Z,9.20
2018-05-16T03:26:21.562Z,8.60
2018-05-16T03:28:49.061Z,8.67
2018-05-16T03:31:16.517Z,8.43
2018-05-16T03:33:43.982Z,8.97
2018-05-16T03:36:12.386Z,8.30
2018-05-16T03:38:39.920Z,8.63
2018-05-16T03:41:07.418Z,8.33
2018-05-16T03:43:34.881Z,7.70
2018-05-16T03:46:02.397Z,7.63
2018-05-16T03:48:29.857Z,7.47
2018-05-16T03:50:58.074Z,7.30
2018-05-16T03:53:25.530Z,7.20
2018-05-16T03:55:53.076Z,7.60
2018-05-16T03:58:32.544Z,7.53
2018-05-16T04:01:11.755Z,8.03
2018-05-16T04:03:52.093Z,8.20
2018-05-16T04:06:19.682Z,9.00
2018-05-16T04:08:47.146Z,8.77
2018-05-16T04:11:14.597Z,7.97
2018-05-16T04:13:42.833Z,8.47
2018-05-16T04:16:10.389Z,7.80
2018-05-16T04:18:37.776Z,8.23
2018-05-16T04:21:05.292Z,8.03
2018-05-16T04:23:32.774Z,8.23
2018-05-16T04:26:00.254Z,8.17
2018-05-16T04:28:27.701Z,8.57
2018-05-16T04:30:55.192Z,7.77
2018-05-16T04:33:23.435Z,7.90
2018-05-16T04:35:50.892Z,7.40
2018-05-16T04:38:18.352Z,7.70
2018-05-16T04:40:45.804Z,7.30
2018-05-16T04:43:14.646Z,7.83
2018-05-16T04:45:42.157Z,6.93
2018-05-16T04:48:09.615Z,7.00
2018-05-16T04:50:37.095Z,7.03
2018-05-16T04:53:04.561Z,6.63
2018-05-16T04:55:32.029Z,7.50
2018-05-16T04:57:59.522Z,7.23
2018-05-16T05:00:26.998Z,6.97
2018-05-16T05:02:55.240Z,7.90
2018-05-16T05:05:22.736Z,7.40
2018-05-16T05:07:50.965Z,7.63
2018-05-16T05:10:19.221Z,7.40
2018-05-16T05:12:46.684Z,7.67
2018-05-16T05:15:14.138Z,8.00
2018-05-16T05:17:41.645Z,8.73
2018-05-16T05:20:09.165Z,8.50
2018-05-16T05:22:36.621Z,8.27
2018-05-16T05:25:04.879Z,8.43
2018-05-16T05:27:32.397Z,8.43
2018-05-16T05:29:59.853Z,8.60
2018-05-16T05:32:27.325Z,8.37
2018-05-16T05:34:54.828Z,8.40
2018-05-16T05:37:22.352Z,9.47
2018-05-16T05:39:49.808Z,8.97
2018-05-16T05:42:17.264Z,8.50
2018-05-16T05:44:44.725Z,8.77
2018-05-16T05:47:12.204Z,8.07
2018-05-16T05:49:39.664Z,8.40
2018-05-16T05:52:07.124Z,8.20
2018-05-16T05:54:34.689Z,8.83
2018-05-16T05:57:02.173Z,8.20
2018-05-16T05:59:29.653Z,8.43
2018-05-16T06:01:57.117Z,8.37
2018-05-16T06:04:24.612Z,8.10
2018-05-16T06:06:52.097Z,7.87
2018-05-16T06:09:19.557Z,7.00
2018-05-16T06:11:47.013Z,7.43
2018-05-16T06:14:15.983Z,7.20
2018-05-16T06:16:43.431Z,7.73
2018-05-16T06:19:11.691Z,7.47
2018-05-16T06:21:39.185Z,7.30
2018-05-16T06:24:06.641Z,6.97
2018-05-16T06:26:34.149Z,6.67
2018-05-16T06:29:01.646Z,6.60
2018-05-16T06:31:29.107Z,6.10
2018-05-16T06:33:56.569Z,5.60
2018-05-16T06:36:24.798Z,6.40
2018-05-16T06:38:52.304Z,5.40
2018-05-16T06:41:19.762Z,5.80
2018-05-16T06:43:47.232Z,5.23
2018-05-16T06:46:14.748Z,5.10
2018-05-16T06:48:42.205Z,6.40
2018-05-16T06:51:09.661Z,5.93
2018-05-16T06:53:37.920Z,6.53
2018-05-16T06:56:05.377Z,6.30
2018-05-16T06:58:32.833Z,6.20
2018-05-16T07:01:01.056Z,6.00
2018-05-16T07:03:28.584Z,6.43
2018-05-16T07:05:56.036Z,8.20
2018-05-16T07:08:24.269Z,8.17
2018-05-16T07:10:52.570Z,8.03
2018-05-16T07:13:20.825Z,7.23
2018-05-16T07:15:48.281Z,8.50
2018-05-16T07:18:16.540Z,10.43
2018-05-16T07:20:44.005Z,11.70
2018-05-16T07:23:11.512Z,10.23
2018-05-16T07:25:38.984Z,10.37
2018-05-16T07:28:06.471Z,11.33
2018-05-16T07:30:33.928Z,10.50
2018-05-16T07:33:01.390Z,11.20
2018-05-16T07:35:29.649Z,11.57
2018-05-16T07:37:57.147Z,11.53
2018-05-16T07:40:24.647Z,13.30
2018-05-16T07:42:52.121Z,14.13
2018-05-16T07:45:19.604Z,13.97
2018-05-16T07:47:47.084Z,14.50
2018-05-16T07:50:14.545Z,13.73
2018-05-16T07:52:42.052Z,14.50
2018-05-16T07:55:09.535Z,15.17
2018-05-16T07:57:37.008Z,14.37
2018-05-16T08:00:04.472Z,12.70
2018-05-16T08:02:31.939Z,12.48
2018-05-16T08:04:59.457Z,12.48
2018-05-16T08:07:26.961Z,13.35
2018-05-16T08:09:54.444Z,12.60
2018-05-16T08:12:22.027Z,14.77
2018-05-16T08:14:49.516Z,15.68
2018-05-16T08:17:16.978Z,14.27
2018-05-16T08:19:44.500Z,14.00
2018-05-16T08:22:11.997Z,14.95
2018-05-16T08:24:39.602Z,15.60
2018-05-16T08:27:07.048Z,15.68
2018-05-16T08:29:34.519Z,14.97
2018-05-16T08:32:02.036Z,12.90
2018-05-16T08:34:29.500Z,13.13
2018-05-16T08:36:57.009Z,13.15
2018-05-16T08:39:24.480Z,13.05
2018-05-16T08:41:51.940Z,12.60
2018-05-16T08:44:19.469Z,13.00
2018-05-16T08:46:47.040Z,13.27
2018-05-16T08:49:14.505Z,13.88
2018-05-16T08:51:41.964Z,12.90
2018-05-16T08:54:10.213Z,14.55
2018-05-16T08:56:37.688Z,14.32
2018-05-16T08:59:05.163Z,14.77
2018-05-16T09:01:32.629Z,15.13
2018-05-16T09:04:00.094Z,16.37
2018-05-16T09:06:28.322Z,16.85
2018-05-16T09:08:55.789Z,15.93
2018-05-16T09:11:23.308Z,16.00
2018-05-16T09:13:50.815Z,12.55
2018-05-16T09:16:19.081Z,16.67
2018-05-16T09:18:46.580Z,17.05
2018-05-16T09:21:14.063Z,16.25
2018-05-16T09:23:41.541Z,15.18
2018-05-16T09:26:09.004Z,16.67
2018-05-16T09:28:36.597Z,16.65
2018-05-16T09:31:04.081Z,14.98
2018-05-16T09:33:31.545Z,15.52
2018-05-16T09:35:59.030Z,17.25
2018-05-16T09:38:26.494Z,16.48
2018-05-16T09:40:54.722Z,16.92
2018-05-16T09:43:22.245Z,16.10
2018-05-16T09:45:49.920Z,15.70
2018-05-16T09:48:17.292Z,16.35
2018-05-16T09:50:44.756Z,16.62
2018-05-16T09:53:13.021Z,17.27
2018-05-16T09:55:40.500Z,14.35
2018-05-16T09:58:07.994Z,15.38
2018-05-16T10:00:35.481Z,13.98
2018-05-16T10:03:02.953Z,16.23
2018-05-16T10:05:30.442Z,15.48
2018-05-16T10:07:57.927Z,14.50
2018-05-16T10:10:25.401Z,15.48
2018-05-16T10:12:52.879Z,15.70
2018-05-16T10:15:20.349Z,14.63
2018-05-16T10:17:48.597Z,15.60
2018-05-16T10:20:16.146Z,15.98
2018-05-16T10:22:43.544Z,15.07
2018-05-16T10:25:11.888Z,14.48
2018-05-16T10:27:39.362Z,13.93
2018-05-16T10:30:06.869Z,13.95
2018-05-16T10:32:34.338Z,15.70
2018-05-16T10:35:01.801Z,13.10
2018-05-16T10:37:29.272Z,13.52
2018-05-16T10:39:57.496Z,14.63
2018-05-16T10:42:25.006Z,14.80
2018-05-16T10:44:52.465Z,14.68
2018-05-16T10:47:19.935Z,14.68
2018-05-16T10:49:47.406Z,13.77
2018-05-16T10:52:14.899Z,14.20
2018-05-16T10:54:43.123Z,15.23
2018-05-16T10:57:10.629Z,14.15
2018-05-16T10:59:38.096Z,14.55
2018-05-16T11:02:05.561Z,13.27
2018-05-16T11:04:33.088Z,14.10
2018-05-16T11:07:00.565Z,14.05
2018-05-16T11:09:28.066Z,14.63
2018-05-16T11:11:55.528Z,13.02
2018-05-16T11:14:23.039Z,13.32
2018-05-16T11:16:50.514Z,12.30
2018-05-16T11:19:18.174Z,12.98
2018-05-16T11:21:45.481Z,13.53
2018-05-16T11:24:12.977Z,13.63
2018-05-16T11:26:40.459Z,13.23
2018-05-16T11:29:07.922Z,13.63
2018-05-16T11:31:35.421Z,13.10
2018-05-16T11:34:02.889Z,14.07
2018-05-16T11:36:30.402Z,14.40
2018-05-16T11:38:57.989Z,14.47
2018-05-16T11:41:25.456Z,14.33
2018-05-16T11:43:52.932Z,15.73
2018-05-16T11:46:20.406Z,16.23
2018-05-16T11:48:47.945Z,16.90
2018-05-16T11:51:15.497Z,16.20
2018-05-16T11:53:43.077Z,15.70
2018-05-16T11:56:10.547Z,13.40
2018-05-16T11:58:38.017Z,15.90
2018-05-16T12:01:05.528Z,15.90
2018-05-16T12:03:33.002Z,15.57
2018-05-16T12:06:00.497Z,12.87
2018-05-16T12:08:27.984Z,12.43
2018-05-16T12:10:55.453Z,12.13
2018-05-16T12:13:22.920Z,11.90
2018-05-16T12:15:50.391Z,11.30
2018-05-16T12:18:17.857Z,10.97
2018-05-16T12:20:46.100Z,10.37
2018-05-16T12:23:13.569Z,10.27
2018-05-16T12:25:41.035Z,9.37
2018-05-16T12:28:09.289Z,10.47
2018-05-16T12:30:36.817Z,10.20
2018-05-16T12:33:05.072Z,10.73
2018-05-16T12:35:32.561Z,11.17
2018-05-16T12:38:00.055Z,10.37
2018-05-16T12:40:27.629Z,11.87
2018-05-16T12:43:07.040Z,10.40
2018-05-16T12:45:35.289Z,11.10
2018-05-16T12:48:02.749Z,11.80
2018-05-16T12:50:30.257Z,11.77
2018-05-16T12:52:57.743Z,10.87
2018-05-16T12:55:25.205Z,11.33
2018-05-16T12:57:52.709Z,11.60
2018-05-16T13:00:20.232Z,10.93
2018-05-16T13:02:48.460Z,10.60
2018-05-16T13:05:15.929Z,10.23
2018-05-16T13:07:43.396Z,9.97
2018-05-16T13:10:11.624Z,10.23
2018-05-16T13:12:39.132Z,10.67
2018-05-16T13:15:06.596Z,10.00
2018-05-16T13:17:34.065Z,8.73
2018-05-16T13:20:01.585Z,7.40
2018-05-16T13:22:29.168Z,7.50
2018-05-16T13:24:56.641Z,6.57
2018-05-16T13:27:24.104Z,6.83
2018-05-16T13:29:51.634Z,7.80
2018-05-16T13:32:19.092Z,7.00
2018-05-16T13:34:46.557Z,6.77
2018-05-16T13:37:14.822Z,6.37
2018-05-16T13:39:42.337Z,6.18
2018-05-16T13:42:10.613Z,5.40
2018-05-16T13:44:38.072Z,6.30
2018-05-16T13:47:06.846Z,5.60
2018-05-16T13:49:34.399Z,5.97
2018-05-16T13:52:01.886Z,6.27
2018-05-16T13:54:29.356Z,7.10
2018-05-16T13:56:56.906Z,7.13
2018-05-16T13:59:25.153Z,6.70
2018-05-16T14:01:52.617Z,7.47
2018-05-16T14:04:20.112Z,6.50
2018-05-16T14:06:47.620Z,7.60
2018-05-16T14:09:15.109Z,7.43
2018-05-16T14:11:42.693Z,8.37
2018-05-16T14:14:10.172Z,7.67
2018-05-16T14:16:37.652Z,8.47
2018-05-16T14:19:05.161Z,7.40
2018-05-16T14:21:32.634Z,6.50
2018-05-16T14:24:00.559Z,6.10
2018-05-16T14:26:28.219Z,5.77
2018-05-16T14:28:56.457Z,5.73
2018-05-16T14:31:24.103Z,6.27
2018-05-16T14:33:51.657Z,6.20
2018-05-16T14:36:19.112Z,6.50
2018-05-16T14:38:46.935Z,6.70
2018-05-16T14:41:14.476Z,6.87
2018-05-16T14:43:41.940Z,7.97
2018-05-16T14:46:10.165Z,8.43
2018-05-16T14:48:39.395Z,7.30
2018-05-16T14:51:06.897Z,7.93
2018-05-16T14:53:35.125Z,7.50
2018-05-16T14:56:03.360Z,6.43
2018-05-16T14:58:30.908Z,7.87
2018-05-16T15:00:58.551Z,7.90
2018-05-16T15:03:26.141Z,7.70
2018-05-16T15:05:53.637Z,7.70
2018-05-16T15:08:21.092Z,7.60
2018-05-16T15:10:48.645Z,6.70
2018-05-16T15:13:16.195Z,7.43
2018-05-16T15:15:44.445Z,7.30
2018-05-16T15:18:11.904Z,6.80
2018-05-16T15:20:39.380Z,6.70
2018-05-16T15:23:06.909Z,6.73
2018-05-16T15:25:34.485Z,7.30
2018-05-16T15:28:01.952Z,7.43
2018-05-16T15:30:29.427Z,6.63
2018-05-16T15:32:56.954Z,7.23
2018-05-16T15:35:24.400Z,7.60
2018-05-16T15:37:51.933Z,7.50
2018-05-16T15:40:19.486Z,7.70
2018-05-16T15:42:46.963Z,7.60
2018-05-16T15:45:14.487Z,7.53
2018-05-16T15:47:41.982Z,7.37
2018-05-16T15:50:09.578Z,8.93
2018-05-16T15:52:37.049Z,8.83
2018-05-16T15:55:04.520Z,10.23
2018-05-16T15:57:32.005Z,8.47
2018-05-16T15:59:59.469Z,8.47
2018-05-16T16:02:26.945Z,7.60
2018-05-16T16:04:55.171Z,8.43
2018-05-16T16:07:23.516Z,7.67
2018-05-16T16:09:51.098Z,8.00
2018-05-16T16:12:18.581Z,8.43
2018-05-16T16:14:46.060Z,7.37
2018-05-16T16:17:13.526Z,7.27
2018-05-16T16:19:40.988Z,7.97
2018-05-16T16:22:09.241Z,7.70
2018-05-16T16:24:36.741Z,8.47
2018-05-16T16:27:04.261Z,8.03
2018-05-16T16:29:31.864Z,8.30
2018-05-16T16:31:59.328Z,7.63
2018-05-16T16:34:26.792Z,6.90
2018-05-16T16:36:54.248Z,7.27
2018-05-16T16:39:22.496Z,7.20
2018-05-16T16:41:49.997Z,6.93
2018-05-16T16:44:17.462Z,6.93
2018-05-16T16:46:44.924Z,7.03
2018-05-16T16:49:12.452Z,6.20
2018-05-16T16:51:40.004Z,6.10
2018-05-16T16:54:07.518Z,5.57
2018-05-16T16:56:35.014Z,6.40
2018-05-16T16:59:02.479Z,5.43
2018-05-16T17:01:29.945Z,5.70
2018-05-16T17:03:58.209Z,5.97
2018-05-16T17:06:25.698Z,6.80
2018-05-16T17:08:53.277Z,6.30
2018-05-16T17:11:20.809Z,5.43
2018-05-16T17:14:23.399Z,5.67
2018-05-16T17:16:50.857Z,6.37
2018-05-16T17:19:18.348Z,6.47
2018-05-16T17:21:46.042Z,5.97
2018-05-16T17:24:13.640Z,6.60
2018-05-16T17:26:41.174Z,6.77
2018-05-16T17:29:08.831Z,7.33
2018-05-16T17:31:36.297Z,6.93
2018-05-16T17:34:04.261Z,6.33
2018-05-16T17:36:32.520Z,7.87
2018-05-16T17:38:59.976Z,7.53
2018-05-16T17:41:27.490Z,8.23
2018-05-16T17:43:55.026Z,7.33
2018-05-16T17:46:23.357Z,7.10
2018-05-16T17:48:51.035Z,6.43
2018-05-16T17:51:18.523Z,7.30
2018-05-16T17:53:46.012Z,6.80
2018-05-16T17:56:14.255Z,6.50
2018-05-16T17:58:41.722Z,6.50
2018-05-16T18:01:09.234Z,6.43
2018-05-16T18:03:36.687Z,6.73
2018-05-16T18:06:04.162Z,6.30
2018-05-16T18:08:31.685Z,6.17
2018-05-16T18:10:59.153Z,6.17
2018-05-16T18:16:46.778Z,6.83
2018-05-16T18:19:14.231Z,6.80
2018-05-16T18:21:42.464Z,6.30
2018-05-16T18:24:09.978Z,6.73
2018-05-16T18:26:37.452Z,6.37
2018-05-16T18:29:04.936Z,7.33
2018-05-16T18:31:32.404Z,6.93
2018-05-16T18:33:59.889Z,6.73
2018-05-16T18:36:27.358Z,6.40
2018-05-16T18:38:54.819Z,5.97
2018-05-16T18:41:23.087Z,7.03
2018-05-16T18:43:50.552Z,6.30
2018-05-16T18:46:18.025Z,6.40
2018-05-16T18:48:45.562Z,6.73
2018-05-16T18:51:13.026Z,7.40
2018-05-16T18:53:40.531Z,7.13
2018-05-16T18:56:08.030Z,7.47
2018-05-16T18:58:35.508Z,6.50
2018-05-16T19:01:02.976Z,7.13
2018-05-16T19:03:30.496Z,7.40
2018-05-16T19:05:57.988Z,7.40
2018-05-16T19:08:25.457Z,7.03
2018-05-16T19:10:52.926Z,7.20
2018-05-16T19:13:20.452Z,7.87
2018-05-16T19:15:47.947Z,7.73
2018-05-16T19:18:15.406Z,7.47
2018-05-16T19:20:42.872Z,8.23
2018-05-16T19:23:11.102Z,7.57
2018-05-16T19:25:38.564Z,7.93
2018-05-16T19:28:06.031Z,8.03
2018-05-16T19:30:33.489Z,8.67
2018-05-16T19:33:00.957Z,9.13
2018-05-16T19:35:28.457Z,8.63
2018-05-16T19:37:55.947Z,9.23
2018-05-16T19:40:23.432Z,8.73
2018-05-16T19:42:50.901Z,8.93
2018-05-16T19:45:18.369Z,8.63
2018-05-16T19:47:45.841Z,9.00
2018-05-16T19:50:13.313Z,9.50
2018-05-16T19:52:40.786Z,9.33
2018-05-16T19:55:08.290Z,8.60
2018-05-16T19:57:36.037Z,8.47
2018-05-16T20:00:04.273Z,9.00
2018-05-16T20:02:31.796Z,9.47
2018-05-16T20:04:59.260Z,8.90
2018-05-16T20:07:26.784Z,9.43
2018-05-16T20:09:54.324Z,9.30
2018-05-16T20:12:21.821Z,9.20
2018-05-16T20:14:49.421Z,10.20
2018-05-16T20:17:16.930Z,9.50
2018-05-16T20:19:44.524Z,10.00
2018-05-16T20:22:12.010Z,10.20
2018-05-16T20:24:39.480Z,10.20
2018-05-16T20:27:06.993Z,11.10
2018-05-16T20:29:34.481Z,11.30
2018-05-16T20:32:01.970Z,12.73
2018-05-16T20:34:29.446Z,12.87
2018-05-16T20:36:56.921Z,13.60
2018-05-16T20:39:24.397Z,12.77
2018-05-16T20:41:51.892Z,12.43
2018-05-16T20:44:19.379Z,14.70
2018-05-16T20:46:46.961Z,15.37
2018-05-16T20:49:14.465Z,15.23
2018-05-16T20:51:41.937Z,16.17
2018-05-16T20:54:09.433Z,16.00
2018-05-16T20:56:37.012Z,17.40
2018-05-16T20:59:04.539Z,16.70
2018-05-16T21:01:32.773Z,18.00
2018-05-16T21:04:00.273Z,18.93
2018-05-16T21:06:27.739Z,19.00
2018-05-16T21:08:55.213Z,18.70
2018-05-16T21:11:23.510Z,19.37
2018-05-16T21:13:51.881Z,19.93
2018-05-16T21:16:19.344Z,19.70
2018-05-16T21:18:46.942Z,19.90
2018-05-16T21:21:14.513Z,20.80
2018-05-16T21:23:42.000Z,20.77
2018-05-16T21:26:09.482Z,23.23
2018-05-16T21:28:36.978Z,22.30
2018-05-16T21:31:04.446Z,21.30
2018-05-16T21:33:32.025Z,21.80
2018-05-16T21:35:59.488Z,19.87
2018-05-16T21:38:26.991Z,19.60
2018-05-16T21:40:54.464Z,20.43
2018-05-16T21:43:21.939Z,18.03
2018-05-16T21:45:50.188Z,20.77
2018-05-16T21:48:17.658Z,19.00
2018-05-16T21:50:45.125Z,19.90
2018-05-16T21:53:12.592Z,20.43
2018-05-16T21:55:40.853Z,21.43
2018-05-16T21:58:08.369Z,19.70
2018-05-16T22:00:36.605Z,21.03
2018-05-16T22:03:04.073Z,19.90
2018-05-16T22:05:31.548Z,19.10
2018-05-16T22:07:59.015Z,20.20
2018-05-16T22:10:27.259Z,20.97
2018-05-16T22:12:54.757Z,18.83
2018-05-16T22:15:22.973Z,19.87
2018-05-16T22:17:50.437Z,20.57
2018-05-16T22:20:17.931Z,19.87
2018-05-16T22:22:45.401Z,22.63
2018-05-16T22:25:12.993Z,22.90
2018-05-16T22:27:40.475Z,20.90
2018-05-16T22:30:07.493Z,22.63
2018-05-16T22:32:41.313Z,22.57
2018-05-16T22:35:14.565Z,21.43
2018-05-16T22:37:47.810Z,20.17
2018-05-16T22:40:21.017Z,19.93
2018-05-16T22:42:47.988Z,20.90
2018-05-16T22:45:21.204Z,20.63
2018-05-16T22:47:48.675Z,21.93
2018-05-16T22:50:16.140Z,20.80
2018-05-16T22:52:44.393Z,20.93
2018-05-16T22:55:11.872Z,21.27
2018-05-16T22:57:39.370Z,20.60
2018-05-16T23:00:06.853Z,20.40
2018-05-16T23:02:34.327Z,20.80
2018-05-16T23:05:01.805Z,21.50
2018-05-16T23:07:30.052Z,20.47
2018-05-16T23:09:57.537Z,20.20
2018-05-16T23:12:25.020Z,20.13
2018-05-16T23:14:52.492Z,20.47
2018-05-16T23:17:19.972Z,20.97
2018-05-16T23:19:48.315Z,21.17
2018-05-16T23:22:15.788Z,21.43
2018-05-16T23:24:43.260Z,21.20
2018-05-16T23:27:10.769Z,21.27
2018-05-16T23:29:38.258Z,22.20
2018-05-16T23:32:05.745Z,21.70
2018-05-16T23:34:33.221Z,22.17
2018-05-16T23:37:00.708Z,22.87
2018-05-16T23:39:28.205Z,23.37
2018-05-16T23:41:55.689Z,23.13
2018-05-16T23:44:23.176Z,22.93
2018-05-16T23:46:50.644Z,23.33
2018-05-16T23:49:18.113Z,24.40
2018-05-16T23:51:45.580Z,22.47
2018-05-16T23:54:13.046Z,23.80
2018-05-16T23:56:41.282Z,25.00
2018-05-16T23:59:08.797Z,23.93
